Time;durP1;ratioP1;P1;durP2;ratioP2;P2;SDS_P1;SDS_P2;PMS_P1;PMS_P2;Temp;Humidity;BMP_temperature;BMP_pressure;BME280_temperature;BME280_humidity;BME280_pressure;Samples;Min_cycle;Max_cycle;Signal;HPM_P1;HPM_P2
2023/01/06 00:00:41;;;;;;;4.60;1.25;;;11.60;99.90;;;;;;5114838;28;20036;-73
2023/01/06 00:03:08;;;;;;;6.32;1.10;;;11.60;99.90;;;;;;5096011;28;20031;-73
2023/01/06 00:05:33;;;;;;;1.73;1.15;;;11.60;99.90;;;;;;5096580;28;20032;-73
2023/01/06 00:07:59;;;;;;;2.30;1.10;;;11.60;99.90;;;;;;5114339;28;20461;-73
2023/01/06 00:10:25;;;;;;;1.65;1.00;;;11.60;99.90;;;;;;5114503;28;20384;-73
2023/01/06 00:12:51;;;;;;;2.17;1.30;;;11.60;99.90;;;;;;5095830;28;20023;-73
2023/01/06 00:15:18;;;;;;;3.30;1.30;;;11.60;99.90;;;;;;5096381;28;20027;-73
2023/01/06 00:17:43;;;;;;;2.42;1.20;;;11.60;99.90;;;;;;5114404;28;20071;-73
2023/01/06 00:20:10;;;;;;;4.22;1.10;;;11.60;99.90;;;;;;5095739;28;20070;-73
2023/01/06 00:22:38;;;;;;;3.03;1.27;;;11.60;99.90;;;;;;5096376;28;20024;-73
2023/01/06 00:25:04;;;;;;;3.60;1.15;;;11.70;99.90;;;;;;5095597;28;20035;-73
2023/01/06 00:27:31;;;;;;;1.92;1.05;;;11.70;99.90;;;;;;5114542;28;20027;-73
2023/01/06 00:29:56;;;;;;;2.05;1.02;;;11.70;99.90;;;;;;5095692;28;20027;-73
2023/01/06 00:32:22;;;;;;;3.17;1.38;;;11.70;99.90;;;;;;5114173;28;20513;-73
2023/01/06 00:34:48;;;;;;;2.33;1.20;;;11.70;99.90;;;;;;5095194;28;20115;-74
2023/01/06 00:37:13;;;;;;;3.70;1.20;;;11.70;99.90;;;;;;5114214;28;20034;-73
2023/01/06 00:39:39;;;;;;;2.05;1.00;;;11.70;99.90;;;;;;5114158;28;20027;-73
2023/01/06 00:42:05;;;;;;;1.27;1.00;;;11.70;99.90;;;;;;5095330;28;20076;-73
2023/01/06 00:44:38;;;;;;;3.15;1.20;;;11.70;99.90;;;;;;5095712;28;20028;-73
2023/01/06 00:47:08;;;;;;;1.38;1.00;;;11.70;99.90;;;;;;5095273;28;20445;-73
2023/01/06 00:49:33;;;;;;;4.82;1.20;;;11.70;99.90;;;;;;5095711;28;20031;-73
2023/01/06 00:51:59;;;;;;;3.22;1.50;;;11.70;99.90;;;;;;5113366;28;20104;-73
2023/01/06 00:54:25;;;;;;;2.03;1.20;;;11.70;99.90;;;;;;5113883;28;20465;-73
2023/01/06 00:56:52;;;;;;;1.70;1.02;;;11.70;99.90;;;;;;5094907;28;20624;-73
2023/01/06 00:59:21;;;;;;;3.00;1.23;;;11.70;99.90;;;;;;5095741;28;20031;-73
2023/01/06 01:01:48;;;;;;;1.98;1.10;;;11.70;99.90;;;;;;5095461;28;20024;-78
2023/01/06 01:04:14;;;;;;;4.95;1.30;;;11.70;99.90;;;;;;5095487;28;20032;-73
2023/01/06 01:06:45;;;;;;;4.00;1.52;;;11.70;99.90;;;;;;5095299;28;20421;-73
2023/01/06 01:09:16;;;;;;;2.10;1.23;;;11.70;99.90;;;;;;5112390;28;20068;-73
2023/01/06 01:14:27;;;;;;;3.08;1.05;;;11.70;99.90;;;;;;5113682;28;20459;-73
2023/01/06 01:16:52;;;;;;;1.58;1.10;;;11.70;99.90;;;;;;5112859;28;20040;-73
2023/01/06 01:19:18;;;;;;;2.58;1.00;;;11.70;99.90;;;;;;5095654;28;20084;-73
2023/01/06 01:21:45;;;;;;;1.88;1.08;;;11.70;99.90;;;;;;5095334;28;20034;-73
2023/01/06 01:24:11;;;;;;;1.73;1.17;;;11.70;99.90;;;;;;5112800;28;20133;-72
2023/01/06 01:26:37;;;;;;;2.25;1.20;;;11.70;99.90;;;;;;5095142;28;20080;-73
2023/01/06 01:29:02;;;;;;;2.30;1.10;;;11.70;99.90;;;;;;5112871;28;20028;-73
2023/01/06 01:31:28;;;;;;;2.63;1.17;;;11.70;99.90;;;;;;5095039;28;20031;-73
2023/01/06 01:33:54;;;;;;;1.92;1.05;;;11.70;99.90;;;;;;5112729;28;20034;-73
2023/01/06 01:36:20;;;;;;;1.92;1.10;;;11.70;99.90;;;;;;5113255;28;20095;-73
2023/01/06 01:38:45;;;;;;;2.70;0.93;;;11.70;99.90;;;;;;5095004;28;20073;-73
2023/01/06 01:41:14;;;;;;;2.63;1.13;;;11.70;99.90;;;;;;5112908;28;20039;-73
2023/01/06 01:43:47;;;;;;;2.22;1.10;;;11.70;99.90;;;;;;5094878;28;20060;-73
2023/01/06 01:46:18;;;;;;;1.13;0.70;;;11.70;99.90;;;;;;5112630;28;20057;-73
2023/01/06 01:48:44;;;;;;;1.45;0.90;;;11.70;99.90;;;;;;5095045;28;20024;-73
2023/01/06 01:51:15;;;;;;;1.20;0.85;;;11.70;99.90;;;;;;5112537;28;20024;-73
2023/01/06 01:53:44;;;;;;;1.45;0.93;;;11.70;99.90;;;;;;5094976;28;20118;-73
2023/01/06 01:56:15;;;;;;;2.45;1.23;;;11.70;99.90;;;;;;5112508;28;20287;-73
2023/01/06 01:58:44;;;;;;;2.92;0.88;;;11.70;99.90;;;;;;5094838;28;20035;-73
2023/01/06 02:01:11;;;;;;;1.42;0.80;;;11.70;99.90;;;;;;5112491;28;20145;-73
2023/01/06 02:03:39;;;;;;;4.43;0.90;;;11.70;99.90;;;;;;5094722;28;20044;-73
2023/01/06 02:06:10;;;;;;;1.48;0.90;;;11.80;99.90;;;;;;5112416;28;20036;-73
2023/01/06 02:08:40;;;;;;;2.38;1.00;;;11.80;99.90;;;;;;5113037;28;20469;-73
2023/01/06 02:11:07;;;;;;;1.83;1.10;;;11.80;99.90;;;;;;5094362;28;20027;-73
2023/01/06 02:13:35;;;;;;;2.92;1.02;;;11.70;99.90;;;;;;5113173;28;20053;-73
2023/01/06 02:16:26;;;;;;;3.10;0.77;;;11.80;99.90;;;;;;5112408;28;20046;-73
2023/01/06 02:19:03;;;;;;;3.03;1.08;;;11.80;99.90;;;;;;5095285;28;20043;-78
2023/01/06 02:21:46;;;;;;;3.15;1.00;;;11.80;99.90;;;;;;5116978;28;20515;-73
2023/01/06 02:25:01;;;;;;;2.60;1.08;;;11.80;99.90;;;;;;5098014;28;20684;-73
2023/01/06 02:27:46;;;;;;;2.45;1.02;;;11.80;99.90;;;;;;5098545;28;20028;-73
2023/01/06 02:30:23;;;;;;;1.08;0.90;;;11.70;99.90;;;;;;5098076;28;20035;-73
2023/01/06 02:33:07;;;;;;;1.73;0.90;;;11.70;99.90;;;;;;5098462;28;20423;-73
2023/01/06 02:35:36;;;;;;;1.80;1.23;;;11.70;99.90;;;;;;5116969;28;20054;-73
2023/01/06 02:38:29;;;;;;;1.70;1.13;;;11.70;99.90;;;;;;5116026;28;20503;-73
2023/01/06 02:41:20;;;;;;;3.63;1.10;;;11.60;99.90;;;;;;5097648;28;20080;-74
2023/01/06 02:44:05;;;;;;;2.95;0.82;;;11.60;99.90;;;;;;5116717;28;20469;-73
2023/01/06 02:47:00;;;;;;;2.05;1.20;;;11.60;99.90;;;;;;5116427;28;20035;-73
2023/01/06 02:49:46;;;;;;;3.40;1.10;;;11.60;99.90;;;;;;5116076;28;20103;-73
2023/01/06 02:52:32;;;;;;;1.60;1.08;;;11.60;99.90;;;;;;5097618;28;20345;-73
2023/01/06 02:55:16;;;;;;;1.20;1.10;;;11.60;99.90;;;;;;5096478;28;20040;-73
2023/01/06 02:57:42;;;;;;;3.80;1.15;;;11.60;99.90;;;;;;5097697;28;20054;-73
2023/01/06 03:00:21;;;;;;;3.35;1.20;;;11.60;99.90;;;;;;5097396;28;20071;-73
2023/01/06 03:02:57;;;;;;;1.73;1.10;;;11.60;99.90;;;;;;5097964;28;20027;-73
2023/01/06 03:05:24;;;;;;;2.92;1.20;;;11.60;99.90;;;;;;5097965;28;20040;-73
2023/01/06 03:07:50;;;;;;;1.70;1.20;;;11.60;99.90;;;;;;5116032;28;20134;-73
2023/01/06 03:10:20;;;;;;;4.90;1.17;;;11.60;99.90;;;;;;5097358;28;20076;-73
2023/01/06 03:13:05;;;;;;;3.38;1.30;;;11.60;99.90;;;;;;5097618;28;20027;-73
2023/01/06 03:15:31;;;;;;;1.77;1.05;;;11.50;99.90;;;;;;5097691;28;20027;-73
2023/01/06 03:17:57;;;;;;;1.83;1.23;;;11.50;99.90;;;;;;5114815;28;20050;-74
2023/01/06 03:20:22;;;;;;;2.05;1.23;;;11.50;99.90;;;;;;5097402;28;20415;-73
2023/01/06 03:22:48;;;;;;;2.40;1.55;;;11.40;99.90;;;;;;5097656;28;20023;-73
2023/01/06 03:25:14;;;;;;;3.10;1.35;;;11.40;99.90;;;;;;5114768;28;20027;-73
2023/01/06 03:27:39;;;;;;;3.72;1.23;;;11.40;99.90;;;;;;5115651;28;20035;-73
2023/01/06 03:30:09;;;;;;;3.47;1.27;;;11.30;99.90;;;;;;5096161;28;20032;-73
2023/01/06 03:32:58;;;;;;;3.65;1.20;;;11.30;99.90;;;;;;5115328;28;20028;-73
2023/01/06 03:35:41;;;;;;;2.10;1.10;;;11.20;99.90;;;;;;5097310;28;20122;-73
2023/01/06 03:38:25;;;;;;;;;;;11.20;99.90;;;;;;5097051;28;20027;-73
2023/01/06 03:41:12;;;;;;;1.40;1.10;;;11.20;99.90;;;;;;5115395;28;19904;-73
2023/01/06 03:43:43;;;;;;;1.77;1.00;;;11.20;99.90;;;;;;5115001;28;20441;-73
2023/01/06 03:46:38;;;;;;;3.47;1.30;;;11.20;99.90;;;;;;5114868;28;20098;-73
2023/01/06 03:49:11;;;;;;;2.15;0.90;;;11.20;99.90;;;;;;5115053;28;20096;-74
2023/01/06 03:51:54;;;;;;;2.38;1.25;;;11.20;99.90;;;;;;5096842;28;20564;-73
2023/01/06 03:54:20;;;;;;;1.67;1.27;;;11.10;99.90;;;;;;5114699;28;20034;-73
2023/01/06 03:56:56;;;;;;;2.63;1.00;;;11.10;99.90;;;;;;5096619;28;20028;-74
2023/01/06 03:59:26;;;;;;;3.17;1.10;;;11.00;99.90;;;;;;5096243;28;20084;-73
2023/01/06 04:01:51;;;;;;;1.23;0.85;;;11.00;99.90;;;;;;5115021;28;20431;-73
2023/01/06 04:04:18;;;;;;;2.85;1.13;;;11.00;99.90;;;;;;5096078;28;20307;-73
2023/01/06 04:06:44;;;;;;;2.00;1.20;;;11.00;99.90;;;;;;5114590;28;20055;-73
2023/01/06 04:09:10;;;;;;;1.73;1.05;;;11.00;99.90;;;;;;5096076;28;20080;-73
2023/01/06 04:14:20;;;;;;;2.13;0.98;;;11.00;99.90;;;;;;5114339;28;20066;-73
2023/01/06 04:16:46;;;;;;;3.10;1.10;;;11.00;99.90;;;;;;5096117;28;20044;-73
2023/01/06 04:19:11;;;;;;;1.40;0.95;;;11.00;99.90;;;;;;5095980;28;20034;-73
2023/01/06 04:21:37;;;;;;;1.08;0.90;;;11.00;99.90;;;;;;5096241;28;20454;-73
2023/01/06 04:24:03;;;;;;;3.42;1.20;;;11.00;99.90;;;;;;5095705;28;20063;-73
2023/01/06 04:26:28;;;;;;;2.10;1.10;;;11.00;99.90;;;;;;5096095;28;20031;-74
2023/01/06 04:28:54;;;;;;;1.67;1.10;;;11.00;99.90;;;;;;5096175;28;20046;-73
2023/01/06 04:31:19;;;;;;;4.95;1.48;;;11.00;99.90;;;;;;5095701;28;20473;-73
2023/01/06 04:33:45;;;;;;;2.30;1.20;;;11.00;99.90;;;;;;5096123;28;20392;-73
2023/01/06 04:36:10;;;;;;;2.10;1.05;;;11.00;99.90;;;;;;5095482;28;20034;-73
2023/01/06 04:38:36;;;;;;;1.80;1.35;;;11.00;99.90;;;;;;5113876;28;20080;-73
2023/01/06 04:41:02;;;;;;;2.53;1.42;;;11.00;99.90;;;;;;5113338;28;20020;-74
2023/01/06 04:43:27;;;;;;;3.40;1.40;;;11.00;99.90;;;;;;5095660;28;20023;-73
2023/01/06 04:45:56;;;;;;;1.70;1.35;;;11.00;99.90;;;;;;5095964;28;20031;-73
2023/01/06 04:48:21;;;;;;;2.47;1.60;;;11.00;99.90;;;;;;5113257;28;20035;-73
2023/01/06 04:50:47;;;;;;;3.10;1.45;;;10.90;99.90;;;;;;5095676;28;20031;-73
2023/01/06 04:53:12;;;;;;;2.33;1.33;;;10.90;99.90;;;;;;5095232;28;20059;-73
2023/01/06 04:55:39;;;;;;;3.25;1.90;;;11.00;99.90;;;;;;5095683;28;20449;-73
2023/01/06 04:58:05;;;;;;;3.05;1.73;;;11.00;99.90;;;;;;5094873;28;20065;-73
2023/01/06 05:00:30;;;;;;;3.15;1.92;;;11.00;99.90;;;;;;5113837;28;20031;-73
2023/01/06 05:02:56;;;;;;;3.65;1.88;;;11.00;99.90;;;;;;5114010;28;20024;-72
2023/01/06 05:05:21;;;;;;;3.33;1.80;;;11.00;99.90;;;;;;5094897;28;20047;-73
2023/01/06 05:07:47;;;;;;;2.55;1.80;;;11.00;99.90;;;;;;5113442;28;20461;-73
2023/01/06 05:10:12;;;;;;;3.83;2.10;;;11.00;99.90;;;;;;5113168;28;20464;-73
2023/01/06 05:12:38;;;;;;;3.15;1.70;;;11.00;99.90;;;;;;5095624;28;20074;-73
2023/01/06 05:15:05;;;;;;;3.55;1.85;;;11.00;99.90;;;;;;5094857;28;20530;-73
2023/01/06 05:17:30;;;;;;;3.78;1.85;;;11.00;99.90;;;;;;5113318;28;20044;-73
2023/01/06 05:19:56;;;;;;;2.70;1.88;;;11.00;99.90;;;;;;5095317;28;20358;-73
2023/01/06 05:22:21;;;;;;;3.80;1.67;;;11.00;99.90;;;;;;5094686;28;20466;-73
2023/01/06 05:24:47;;;;;;;2.53;1.85;;;11.00;99.90;;;;;;5095031;28;20028;-72
2023/01/06 05:27:13;;;;;;;2.95;1.88;;;11.00;99.90;;;;;;5094687;28;20036;-73
2023/01/06 05:29:39;;;;;;;2.35;1.40;;;11.00;99.90;;;;;;5095138;28;20028;-73
2023/01/06 05:32:04;;;;;;;4.82;1.83;;;11.00;99.90;;;;;;5094552;28;20028;-74
2023/01/06 05:34:30;;;;;;;3.10;1.63;;;11.00;99.90;;;;;;5094961;28;20483;-73
2023/01/06 05:36:56;;;;;;;5.63;1.90;;;11.00;99.90;;;;;;5095043;28;20024;-73
2023/01/06 05:39:22;;;;;;;3.47;1.73;;;11.00;99.90;;;;;;5094581;28;20031;-73
2023/01/06 05:41:48;;;;;;;2.13;1.50;;;11.00;99.90;;;;;;5095175;28;20096;-73
2023/01/06 05:44:14;;;;;;;2.05;1.85;;;11.00;99.90;;;;;;5094315;28;20023;-73
2023/01/06 05:46:39;;;;;;;3.10;1.70;;;11.00;99.90;;;;;;5113152;28;20028;-73
2023/01/06 05:49:05;;;;;;;2.70;1.92;;;11.00;99.90;;;;;;5094415;28;20027;-75
2023/01/06 05:51:30;;;;;;;3.70;2.03;;;11.00;99.90;;;;;;5094958;28;20034;-73
2023/01/06 05:53:56;;;;;;;3.25;1.77;;;11.00;99.90;;;;;;5095959;28;20384;-73
2023/01/06 05:56:22;;;;;;;4.25;1.80;;;11.00;99.90;;;;;;5098525;28;20028;-73
2023/01/06 05:58:50;;;;;;;4.03;2.10;;;10.90;99.90;;;;;;5099032;28;20104;-73
2023/01/06 06:01:21;;;;;;;4.18;2.03;;;11.00;99.90;;;;;;5098434;28;20023;-73
2023/01/06 06:03:47;;;;;;;3.20;1.95;;;10.90;99.90;;;;;;5117164;28;20030;-73
2023/01/06 06:06:13;;;;;;;3.30;1.75;;;11.00;99.90;;;;;;5098296;28;20032;-73
2023/01/06 06:08:39;;;;;;;3.20;2.10;;;11.00;99.90;;;;;;5098933;28;20499;-73
2023/01/06 06:11:11;;;;;;;2.35;1.73;;;11.00;99.90;;;;;;5098822;28;20055;-73
2023/01/06 06:13:37;;;;;;;;;;;10.90;99.90;;;;;;5099190;28;20027;-73
2023/01/06 06:16:08;;;;;;;3.10;1.95;;;10.90;99.90;;;;;;5098745;28;20264;-73
2023/01/06 06:18:35;;;;;;;3.75;2.05;;;10.90;99.90;;;;;;5116411;28;20127;-73
2023/01/06 06:21:04;;;;;;;3.20;2.10;;;10.90;99.90;;;;;;5098538;28;20019;-73
2023/01/06 06:23:30;;;;;;;2.78;2.25;;;10.90;99.90;;;;;;5097929;28;20542;-74
2023/01/06 06:25:56;;;;;;;3.20;2.15;;;10.90;99.90;;;;;;5098579;28;20111;-73
2023/01/06 06:28:22;;;;;;;3.95;2.10;;;10.90;99.90;;;;;;5116769;28;20085;-73
2023/01/06 06:30:48;;;;;;;4.05;2.13;;;10.90;99.90;;;;;;5098619;28;20032;-73
2023/01/06 06:33:13;;;;;;;5.25;2.30;;;10.90;99.90;;;;;;5097974;28;20045;-74
2023/01/06 06:35:39;;;;;;;5.22;2.20;;;10.80;99.90;;;;;;5116337;28;20035;-73
2023/01/06 06:38:04;;;;;;;3.67;2.53;;;10.80;99.90;;;;;;5098337;28;20035;-73
2023/01/06 06:40:30;;;;;;;3.65;2.30;;;10.80;99.90;;;;;;5116068;28;20140;-73
2023/01/06 06:42:56;;;;;;;6.63;2.40;;;10.80;99.90;;;;;;5116201;28;20384;-73
2023/01/06 06:45:22;;;;;;;3.30;1.95;;;10.80;99.90;;;;;;5097303;28;20062;-73
2023/01/06 06:47:53;;;;;;;3.42;2.40;;;10.80;99.90;;;;;;5116050;28;20133;-73
2023/01/06 06:50:18;;;;;;;4.50;2.50;;;10.80;99.90;;;;;;5097669;28;20062;-74
2023/01/06 06:52:44;;;;;;;4.78;2.38;;;10.80;99.90;;;;;;5098210;28;20457;-73
2023/01/06 06:55:09;;;;;;;4.32;2.13;;;10.80;99.90;;;;;;5097534;28;20028;-74
2023/01/06 06:57:35;;;;;;;3.72;1.90;;;10.80;99.90;;;;;;5097703;28;20027;-74
2023/01/06 07:00:01;;;;;;;4.45;2.00;;;10.80;99.90;;;;;;5097894;28;20035;-73
2023/01/06 07:02:26;;;;;;;4.45;2.10;;;10.70;99.90;;;;;;5115903;28;20157;-73
2023/01/06 07:04:52;;;;;;;2.88;1.67;;;10.70;99.90;;;;;;5097076;28;20032;-74
2023/01/06 07:07:17;;;;;;;3.90;1.92;;;10.80;99.90;;;;;;5114928;28;20103;-74
2023/01/06 07:09:43;;;;;;;5.00;1.83;;;10.80;99.90;;;;;;5115912;28;20464;-74
2023/01/06 07:12:09;;;;;;;2.95;1.98;;;10.80;99.90;;;;;;5115823;28;20090;-78
2023/01/06 07:14:34;;;;;;;6.63;2.70;;;10.80;99.90;;;;;;5097539;28;20114;-73
2023/01/06 07:17:03;;;;;;;4.80;2.10;;;10.80;99.90;;;;;;5097363;28;20044;-73
2023/01/06 07:19:29;;;;;;;2.88;1.80;;;10.80;99.90;;;;;;5115285;28;20206;-74
2023/01/06 07:21:54;;;;;;;2.92;2.20;;;10.80;99.90;;;;;;5115784;28;20020;-73
2023/01/06 07:24:20;;;;;;;3.35;2.20;;;10.80;99.90;;;;;;5096833;28;20077;-74
2023/01/06 07:26:46;;;;;;;3.47;1.55;;;10.80;99.90;;;;;;5097335;28;20027;-73
2023/01/06 07:29:11;;;;;;;4.13;1.83;;;10.80;99.90;;;;;;5096865;28;20032;-75
2023/01/06 07:31:37;;;;;;;2.28;1.60;;;10.80;99.90;;;;;;5115472;28;20414;-73
2023/01/06 07:34:02;;;;;;;4.72;1.75;;;10.70;99.90;;;;;;5096824;28;20035;-73
2023/01/06 07:36:28;;;;;;;2.13;1.50;;;10.80;99.90;;;;;;5115203;28;20478;-74
2023/01/06 07:38:53;;;;;;;3.45;1.33;;;10.80;99.90;;;;;;5097276;28;20027;-73
2023/01/06 07:41:19;;;;;;;1.48;1.05;;;10.80;99.90;;;;;;5114838;28;20031;-74
2023/01/06 07:43:44;;;;;;;2.60;1.08;;;10.80;99.90;;;;;;5096947;28;20027;-74
2023/01/06 07:46:10;;;;;;;2.45;0.70;;;10.90;99.90;;;;;;5115262;28;20081;-74
2023/01/06 07:48:36;;;;;;;0.70;0.57;;;10.90;99.90;;;;;;5096653;28;20389;-73
2023/01/06 07:51:02;;;;;;;2.20;0.60;;;10.90;99.90;;;;;;5096873;28;20031;-73
2023/01/06 07:53:28;;;;;;;1.65;0.40;;;11.00;99.90;;;;;;5114633;28;20051;-73
2023/01/06 07:55:53;;;;;;;0.57;0.43;;;11.00;99.90;;;;;;5096838;28;20023;-73
2023/01/06 07:58:20;;;;;;;0.95;0.40;;;11.10;99.90;;;;;;5096306;28;20023;-73
2023/01/06 08:00:45;;;;;;;0.77;0.60;;;11.10;99.90;;;;;;5096637;28;20082;-73
2023/01/06 08:03:11;;;;;;;0.63;0.38;;;11.10;99.90;;;;;;5096801;28;20457;-75
2023/01/06 08:05:40;;;;;;;0.52;0.38;;;11.20;99.90;;;;;;5096259;28;20465;-73
2023/01/06 08:08:06;;;;;;;0.30;0.20;;;11.20;99.90;;;;;;5096545;28;20034;-73
2023/01/06 08:10:32;;;;;;;0.30;0.30;;;11.20;99.90;;;;;;5095944;28;20347;-73
2023/01/06 08:12:58;;;;;;;2.72;1.08;;;11.30;99.90;;;;;;5096536;28;20023;-73
2023/01/06 08:15:24;;;;;;;0.75;0.52;;;11.30;99.90;;;;;;5095828;28;20031;-74
2023/01/06 08:17:54;;;;;;;1.08;0.55;;;11.30;99.90;;;;;;5092272;28;20101;-73
2023/01/06 08:20:20;;;;;;;0.75;0.45;;;11.40;99.90;;;;;;5093543;28;20462;-74
2023/01/06 08:22:45;;;;;;;1.52;0.50;;;11.40;99.90;;;;;;5092867;28;20028;-74
2023/01/06 08:25:11;;;;;;;1.20;0.35;;;11.40;99.90;;;;;;5092789;28;20042;-73
2023/01/06 08:27:37;;;;;;;0.40;0.30;;;11.40;99.90;;;;;;5092007;28;20443;-73
2023/01/06 08:30:03;;;;;;;0.50;0.30;;;11.50;99.90;;;;;;5092671;28;20064;-73
2023/01/06 08:32:29;;;;;;;1.55;0.50;;;11.50;99.90;;;;;;5093533;28;20028;-73
2023/01/06 08:34:54;;;;;;;0.38;0.30;;;11.50;99.90;;;;;;5093935;28;20032;-74
2023/01/06 08:37:20;;;;;;;2.50;0.40;;;11.50;99.90;;;;;;5093338;28;20024;-74
2023/01/06 08:39:46;;;;;;;1.65;0.38;;;11.50;99.90;;;;;;5092288;28;20381;-73
2023/01/06 08:42:12;;;;;;;0.50;0.30;;;11.50;99.90;;;;;;5092577;28;20024;-74
2023/01/06 08:44:37;;;;;;;1.05;0.40;;;11.50;99.90;;;;;;5091857;28;20035;-74
2023/01/06 08:47:03;;;;;;;0.40;0.40;;;11.50;99.90;;;;;;5092508;28;20119;-73
2023/01/06 08:49:29;;;;;;;0.80;0.30;;;11.50;99.90;;;;;;5091930;28;20020;-74
2023/01/06 08:51:55;;;;;;;0.63;0.30;;;11.50;99.90;;;;;;5093616;28;20068;-74
2023/01/06 08:54:21;;;;;;;0.95;0.30;;;11.50;99.90;;;;;;5091799;28;20028;-74
2023/01/06 08:56:47;;;;;;;2.13;0.30;;;11.50;99.90;;;;;;5092345;28;20081;-74
2023/01/06 08:59:15;;;;;;;0.50;0.38;;;11.50;99.90;;;;;;5092268;28;20111;-74
2023/01/06 09:01:41;;;;;;;0.95;0.40;;;11.50;99.90;;;;;;5093190;28;20031;-74
2023/01/06 09:04:08;;;;;;;0.65;0.30;;;11.50;99.90;;;;;;5092037;28;20027;-74
2023/01/06 09:06:34;;;;;;;0.47;0.20;;;11.50;99.90;;;;;;5091686;28;20086;-74
2023/01/06 09:09:01;;;;;;;1.55;0.32;;;11.50;99.90;;;;;;5092049;28;20024;-74
2023/01/06 09:11:27;;;;;;;1.13;0.30;;;11.50;99.90;;;;;;5091554;28;20078;-74
2023/01/06 09:13:53;;;;;;;0.40;0.28;;;11.60;99.90;;;;;;5093313;28;20032;-74
2023/01/06 09:16:20;;;;;;;2.13;0.30;;;11.60;99.90;;;;;;5091520;28;20020;-74
2023/01/06 09:18:49;;;;;;;0.90;0.38;;;11.60;99.90;;;;;;5091840;28;20397;-73
2023/01/06 09:21:20;;;;;;;2.88;1.25;;;11.60;99.90;;;;;;5091986;28;20020;-74
2023/01/06 09:23:46;;;;;;;0.45;0.30;;;11.60;99.90;;;;;;5093117;28;20093;-74
2023/01/06 09:26:14;;;;;;;1.67;0.43;;;11.60;99.90;;;;;;5091531;28;20066;-74
2023/01/06 09:28:40;;;;;;;0.38;0.20;;;11.60;99.90;;;;;;5090570;28;20043;-73
2023/01/06 09:31:06;;;;;;;0.40;0.40;;;11.60;99.90;;;;;;5091728;28;20123;-73
2023/01/06 09:33:32;;;;;;;0.95;0.30;;;11.60;99.90;;;;;;5091231;28;20069;-73
2023/01/06 09:35:57;;;;;;;0.30;0.20;;;11.60;99.90;;;;;;5091928;28;20469;-73
2023/01/06 09:38:23;;;;;;;1.10;0.20;;;11.60;99.90;;;;;;5091099;28;20027;-73
2023/01/06 09:41:06;;;;;;;1.40;0.55;;;11.70;99.90;;;;;;5091752;28;20098;-74
2023/01/06 09:43:51;;;;;;;0.60;0.30;;;11.70;99.90;;;;;;5091032;28;20028;-74
2023/01/06 09:46:30;;;;;;;0.35;0.30;;;11.70;99.90;;;;;;5091651;28;20477;-73
2023/01/06 09:49:02;;;;;;;4.10;0.30;;;11.70;99.90;;;;;;5091643;28;20060;-73
2023/01/06 09:51:30;;;;;;;0.10;0.10;;;11.80;99.90;;;;;;5091054;28;20415;-74
2023/01/06 09:54:11;;;;;;;0.20;0.20;;;11.80;99.90;;;;;;5092726;28;20107;-73
2023/01/06 09:56:38;;;;;;;2.42;0.60;;;11.80;99.90;;;;;;5092184;28;20055;-73
2023/01/06 09:59:13;;;;;;;0.20;0.20;;;11.80;99.90;;;;;;5091755;28;20119;-74
2023/01/06 10:01:44;;;;;;;1.10;0.20;;;11.90;99.90;;;;;;5091022;28;20036;-74
2023/01/06 10:04:16;;;;;;;1.02;0.20;;;11.90;99.90;;;;;;5092383;28;20032;-73
2023/01/06 10:06:49;;;;;;;1.55;0.30;;;12.00;99.90;;;;;;5090942;28;20515;-74
2023/01/06 10:09:28;;;;;;;1.08;0.38;;;12.00;99.90;;;;;;5091431;28;20028;-73
2023/01/06 10:12:00;;;;;;;0.40;0.28;;;12.00;99.90;;;;;;5091613;28;20024;-73
2023/01/06 10:14:37;;;;;;;0.60;0.32;;;12.10;99.90;;;;;;5092192;28;20082;-73
2023/01/06 10:17:22;;;;;;;0.30;0.22;;;12.20;99.90;;;;;;5090811;28;20044;-73
2023/01/06 10:20:10;;;;;;;0.95;0.30;;;12.20;99.90;;;;;;5092307;28;20427;-74
2023/01/06 10:22:55;;;;;;;1.55;0.22;;;12.20;99.90;;;;;;5090814;28;20032;-74
2023/01/06 10:25:32;;;;;;;0.50;0.20;;;12.10;99.90;;;;;;5092263;28;20093;-78
2023/01/06 10:28:07;;;;;;;0.85;0.20;;;12.10;99.90;;;;;;5091295;28;20040;-73
2023/01/06 10:30:37;;;;;;;0.68;0.40;;;12.10;99.90;;;;;;5090791;28;20024;-74
2023/01/06 10:33:04;;;;;;;1.65;0.22;;;12.10;99.90;;;;;;5091353;28;20035;-74
2023/01/06 10:35:31;;;;;;;0.47;0.30;;;12.00;99.90;;;;;;5091739;28;20028;-74
2023/01/06 10:38:01;;;;;;;0.20;0.20;;;12.00;99.90;;;;;;5091239;28;20028;-74
2023/01/06 10:40:29;;;;;;;1.30;0.28;;;12.20;99.90;;;;;;5093732;28;20024;-74
2023/01/06 10:43:05;;;;;;;0.65;0.40;;;12.20;99.90;;;;;;5094834;28;20024;-74
2023/01/06 10:45:45;;;;;;;0.40;0.30;;;12.10;99.90;;;;;;5095591;28;20059;-74
2023/01/06 10:48:23;;;;;;;2.90;0.65;;;12.20;99.90;;;;;;5094937;28;20037;-73
2023/01/06 10:50:49;;;;;;;0.55;0.40;;;12.30;99.90;;;;;;5094996;28;20024;-74
2023/01/06 10:53:16;;;;;;;1.48;0.60;;;12.30;99.90;;;;;;5095960;28;20498;-74
2023/01/06 10:55:59;;;;;;;0.63;0.50;;;12.30;99.90;;;;;;5095378;28;20032;-74
2023/01/06 10:58:34;;;;;;;0.32;0.32;;;12.40;99.90;;;;;;5093690;28;20508;-75
2023/01/06 11:01:11;;;;;;;1.40;0.38;;;12.40;99.90;;;;;;5094526;28;20032;-74
2023/01/06 11:03:41;;;;;;;1.08;0.50;;;12.40;99.90;;;;;;5093877;28;20028;-74
2023/01/06 11:06:15;;;;;;;0.57;0.30;;;12.50;99.90;;;;;;5095831;28;20020;-74
2023/01/06 11:08:41;;;;;;;0.52;0.40;;;12.50;99.90;;;;;;5094001;28;20421;-74
2023/01/06 11:11:12;;;;;;;0.30;0.30;;;12.50;99.90;;;;;;5095665;28;20059;-73
2023/01/06 11:13:39;;;;;;;;;;;12.50;99.90;;;;;;5095509;28;20031;-73
2023/01/06 11:16:16;;;;;;;0.80;0.30;;;12.50;99.90;;;;;;5095338;28;19904;-74
2023/01/06 11:18:42;;;;;;;1.23;0.70;;;12.40;99.90;;;;;;5093312;28;20051;-73
2023/01/06 11:21:11;;;;;;;1.08;0.40;;;12.40;99.90;;;;;;5094097;28;20032;-74
2023/01/06 11:23:39;;;;;;;2.22;0.50;;;12.50;99.90;;;;;;5093490;28;20027;-74
2023/01/06 11:26:11;;;;;;;0.90;0.40;;;12.50;99.90;;;;;;5094087;28;20533;-74
2023/01/06 11:28:47;;;;;;;0.45;0.30;;;12.50;99.90;;;;;;5093464;28;20032;-74
2023/01/06 11:31:12;;;;;;;0.45;0.30;;;12.60;99.90;;;;;;5095243;28;20036;-74
2023/01/06 11:34:00;;;;;;;0.35;0.20;;;12.60;99.90;;;;;;5094961;28;20031;-74
2023/01/06 11:36:31;;;;;;;0.40;0.40;;;12.60;99.90;;;;;;5094717;28;20147;-75
2023/01/06 11:39:20;;;;;;;0.43;0.30;;;12.60;99.90;;;;;;5095064;28;20020;-74
2023/01/06 11:41:48;;;;;;;0.68;0.30;;;12.70;99.90;;;;;;5094574;28;20034;-74
2023/01/06 11:44:38;;;;;;;6.00;2.90;;;12.80;99.90;;;;;;5093630;28;20534;-73
2023/01/06 11:47:11;;;;;;;0.95;0.55;;;12.90;99.90;;;;;;5094971;28;20465;-73
2023/01/06 11:49:42;;;;;;;1.58;0.32;;;13.00;99.90;;;;;;5093085;28;20024;-74
2023/01/06 11:52:35;;;;;;;0.35;0.30;;;13.00;99.90;;;;;;5094086;28;20020;-73
2023/01/06 11:55:03;;;;;;;0.70;0.30;;;12.90;99.90;;;;;;5093995;28;20121;-74
2023/01/06 11:58:13;;;;;;;1.27;0.45;;;13.00;99.90;;;;;;5094472;28;20057;-75
2023/01/06 12:00:52;;;;;;;2.78;1.00;;;12.90;99.90;;;;;;5031720;28;20434;-73
2023/01/06 12:03:33;;;;;;;7.03;2.88;;;12.90;99.90;;;;;;5015542;28;20471;-73
2023/01/06 12:06:16;;;;;;;0.60;0.35;;;12.80;99.90;;;;;;5032086;28;20064;-74
2023/01/06 12:09:09;;;;;;;1.95;0.52;;;12.80;99.90;;;;;;5014854;28;20514;-77
2023/01/06 12:11:56;;;;;;;1.65;0.60;;;12.90;99.90;;;;;;5012720;28;20091;-74
2023/01/06 12:14:32;;;;;;;1.33;0.28;;;13.00;99.90;;;;;;5031809;28;20033;-73
2023/01/06 12:17:12;;;;;;;1.02;0.40;;;13.10;99.90;;;;;;5031576;28;20554;-73
2023/01/06 12:19:44;;;;;;;1.25;0.30;;;13.20;99.90;;;;;;5014770;28;20033;-73
2023/01/06 12:22:23;;;;;;;1.30;0.30;;;13.00;99.90;;;;;;5015182;28;20048;-74
2023/01/06 12:24:51;;;;;;;0.77;0.47;;;12.90;99.90;;;;;;5031131;28;20044;-73
2023/01/06 12:27:26;;;;;;;0.60;0.47;;;12.80;99.90;;;;;;5014920;28;20033;-74
2023/01/06 12:29:56;;;;;;;0.50;0.40;;;12.80;99.90;;;;;;5014582;28;20566;-74
2023/01/06 12:32:27;;;;;;;0.25;0.25;;;12.70;99.90;;;;;;5084327;28;20127;-73
2023/01/06 12:34:59;;;;;;;1.48;0.30;;;12.60;99.90;;;;;;5093613;28;20017;-74
2023/01/06 12:37:41;;;;;;;0.43;0.30;;;12.60;99.90;;;;;;5094069;28;20107;-73
2023/01/06 12:40:31;;;;;;;0.32;0.30;;;12.60;99.90;;;;;;5092366;28;20027;-74
2023/01/06 12:43:18;;;;;;;0.80;0.28;;;12.60;99.90;;;;;;5092688;28;20024;-73
2023/01/06 12:46:05;;;;;;;0.55;0.40;;;12.60;99.90;;;;;;5091846;28;20028;-74
2023/01/06 12:48:55;;;;;;;0.88;0.38;;;12.50;99.90;;;;;;5091646;28;20043;-73
2023/01/06 12:51:38;;;;;;;0.52;0.30;;;12.40;99.90;;;;;;5092542;28;20028;-74
2023/01/06 12:54:04;;;;;;;0.30;0.30;;;12.40;99.90;;;;;;5092354;28;20461;-73
2023/01/06 12:56:37;;;;;;;0.68;0.30;;;12.40;99.90;;;;;;5091850;28;20024;-78
2023/01/06 12:59:02;;;;;;;2.28;0.45;;;12.40;99.90;;;;;;5092421;28;20036;-73
2023/01/06 13:01:28;;;;;;;0.40;0.30;;;12.30;99.90;;;;;;5093191;28;20099;-74
2023/01/06 13:04:15;;;;;;;1.35;0.20;;;12.40;99.90;;;;;;5091446;28;20118;-74
2023/01/06 13:07:09;;;;;;;1.02;0.20;;;12.30;99.90;;;;;;5092622;28;20035;-74
2023/01/06 13:09:49;;;;;;;0.55;0.35;;;12.30;99.90;;;;;;5091602;28;20035;-74